sensor_id;sensor_type;location;lat;lon;timestamp;pressure;altitude;pressure_sealevel;temperature;humidity
40730;BME280;26418;50.070;8.436;2023-04-29T00:00:19;99630.84;;;12.37;90.77
40730;BME280;26418;50.070;8.436;2023-04-29T00:02:45;99630.69;;;12.33;91.30
40730;BME280;26418;50.070;8.436;2023-04-29T00:05:10;99634.97;;;12.34;91.20
40730;BME280;26418;50.070;8.436;2023-04-29T00:07:35;99641.69;;;12.37;91.28
40730;BME280;26418;50.070;8.436;2023-04-29T00:10:01;99645.03;;;12.34;91.80
40730;BME280;26418;50.070;8.436;2023-04-29T00:12:26;99649.19;;;12.31;91.93
40730;BME280;26418;50.070;8.436;2023-04-29T00:14:54;99629.56;;;12.17;92.11
40730;BME280;26418;50.070;8.436;2023-04-29T00:17:19;99643.59;;;12.19;92.44
40730;BME280;26418;50.070;8.436;2023-04-29T00:19:44;99642.63;;;12.15;92.75
40730;BME280;26418;50.070;8.436;2023-04-29T00:22:10;99628.75;;;12.07;92.64
40730;BME280;26418;50.070;8.436;2023-04-29T00:24:35;99634.34;;;12.11;92.97
40730;BME280;26418;50.070;8.436;2023-04-29T00:27:00;99642.16;;;12.04;93.20
40730;BME280;26418;50.070;8.436;2023-04-29T00:29:30;99640.56;;;12.03;93.61
40730;BME280;26418;50.070;8.436;2023-04-29T00:31:55;99641.66;;;12.02;93.70
40730;BME280;26418;50.070;8.436;2023-04-29T00:34:20;99638.47;;;12.00;93.41
40730;BME280;26418;50.070;8.436;2023-04-29T00:36:46;99631.41;;;11.90;93.23
40730;BME280;26418;50.070;8.436;2023-04-29T00:39:11;99627.44;;;11.87;93.49
40730;BME280;26418;50.070;8.436;2023-04-29T00:41:38;99636.34;;;11.88;93.99
40730;BME280;26418;50.070;8.436;2023-04-29T00:44:03;99642.25;;;11.90;94.37
40730;BME280;26418;50.070;8.436;2023-04-29T00:46:28;99639.22;;;11.91;93.91
40730;BME280;26418;50.070;8.436;2023-04-29T00:48:54;99640.50;;;11.85;94.29
40730;BME280;26418;50.070;8.436;2023-04-29T00:51:19;99641.59;;;11.84;94.57
40730;BME280;26418;50.070;8.436;2023-04-29T00:53:45;99648.91;;;11.84;94.60
40730;BME280;26418;50.070;8.436;2023-04-29T00:56:11;99631.06;;;11.74;94.60
40730;BME280;26418;50.070;8.436;2023-04-29T00:58:39;99647.03;;;11.84;94.64
40730;BME280;26418;50.070;8.436;2023-04-29T01:01:04;99644.00;;;11.86;94.67
40730;BME280;26418;50.070;8.436;2023-04-29T01:03:30;99639.84;;;11.79;95.06
40730;BME280;26418;50.070;8.436;2023-04-29T01:06:22;99644.47;;;11.88;94.99
40730;BME280;26418;50.070;8.436;2023-04-29T01:09:15;99648.63;;;11.85;94.98
40730;BME280;26418;50.070;8.436;2023-04-29T01:12:19;99634.88;;;11.73;95.26
40730;BME280;26418;50.070;8.436;2023-04-29T01:14:53;99644.47;;;11.79;95.50
40730;BME280;26418;50.070;8.436;2023-04-29T01:17:22;99641.88;;;11.74;95.65
40730;BME280;26418;50.070;8.436;2023-04-29T01:19:55;99645.72;;;11.73;95.21
40730;BME280;26418;50.070;8.436;2023-04-29T01:22:21;99647.00;;;11.75;94.78
40730;BME280;26418;50.070;8.436;2023-04-29T01:24:47;99626.09;;;11.67;94.67
40730;BME280;26418;50.070;8.436;2023-04-29T01:27:16;99645.72;;;11.73;94.40
40730;BME280;26418;50.070;8.436;2023-04-29T01:29:59;99637.41;;;11.60;94.63
40730;BME280;26418;50.070;8.436;2023-04-29T01:32:42;99651.72;;;11.61;94.72
40730;BME280;26418;50.070;8.436;2023-04-29T01:35:42;99650.31;;;11.63;93.74
40730;BME280;26418;50.070;8.436;2023-04-29T01:38:44;99656.22;;;11.66;93.53
40730;BME280;26418;50.070;8.436;2023-04-29T01:43:51;99655.25;;;11.61;93.57
40730;BME280;26418;50.070;8.436;2023-04-29T01:46:19;99658.44;;;11.63;93.39
40730;BME280;26418;50.070;8.436;2023-04-29T01:48:44;99640.56;;;11.54;93.35
40730;BME280;26418;50.070;8.436;2023-04-29T01:51:10;99649.66;;;11.58;93.52
40730;BME280;26418;50.070;8.436;2023-04-29T01:53:36;99653.50;;;11.57;93.61
40730;BME280;26418;50.070;8.436;2023-04-29T01:56:02;99657.47;;;11.59;93.41
40730;BME280;26418;50.070;8.436;2023-04-29T01:58:27;99647.25;;;11.56;93.73
40730;BME280;26418;50.070;8.436;2023-04-29T02:00:53;99654.09;;;11.54;93.69
40730;BME280;26418;50.070;8.436;2023-04-29T02:03:19;99652.38;;;11.58;93.76
40730;BME280;26418;50.070;8.436;2023-04-29T02:05:45;99655.72;;;11.63;93.84
40730;BME280;26418;50.070;8.436;2023-04-29T02:08:10;99656.25;;;11.74;93.24
40730;BME280;26418;50.070;8.436;2023-04-29T02:10:35;99665.38;;;11.87;92.83
40730;BME280;26418;50.070;8.436;2023-04-29T02:13:00;99657.25;;;11.96;92.41
40730;BME280;26418;50.070;8.436;2023-04-29T02:15:27;99662.25;;;12.03;92.22
40730;BME280;26418;50.070;8.436;2023-04-29T02:17:52;99652.34;;;12.07;92.79
40730;BME280;26418;50.070;8.436;2023-04-29T02:20:18;99663.06;;;12.12;93.42
40730;BME280;26418;50.070;8.436;2023-04-29T02:22:44;99660.03;;;12.14;93.77
40730;BME280;26418;50.070;8.436;2023-04-29T02:25:09;99659.19;;;12.13;94.17
40730;BME280;26418;50.070;8.436;2023-04-29T02:27:35;99658.41;;;12.13;94.42
40730;BME280;26418;50.070;8.436;2023-04-29T02:30:01;99663.50;;;12.14;94.26
40730;BME280;26418;50.070;8.436;2023-04-29T02:32:26;99658.75;;;12.11;94.17
40730;BME280;26418;50.070;8.436;2023-04-29T02:34:52;99666.22;;;12.14;94.21
40730;BME280;26418;50.070;8.436;2023-04-29T02:37:17;99660.66;;;12.10;94.44
40730;BME280;26418;50.070;8.436;2023-04-29T02:39:43;99668.63;;;12.07;94.63
40730;BME280;26418;50.070;8.436;2023-04-29T02:42:08;99650.28;;;12.04;94.35
40730;BME280;26418;50.070;8.436;2023-04-29T02:44:33;99666.56;;;12.13;94.21
40730;BME280;26418;50.070;8.436;2023-04-29T02:46:59;99670.38;;;12.11;94.29
40730;BME280;26418;50.070;8.436;2023-04-29T02:49:24;99667.34;;;12.13;94.19
40730;BME280;26418;50.070;8.436;2023-04-29T02:51:49;99670.53;;;12.15;93.94
40730;BME280;26418;50.070;8.436;2023-04-29T02:54:15;99671.50;;;12.19;93.50
40730;BME280;26418;50.070;8.436;2023-04-29T02:56:41;99671.19;;;12.21;93.20
40730;BME280;26418;50.070;8.436;2023-04-29T02:59:07;99662.56;;;12.19;93.49
40730;BME280;26418;50.070;8.436;2023-04-29T03:01:32;99668.63;;;12.24;92.92
40730;BME280;26418;50.070;8.436;2023-04-29T03:03:57;99671.34;;;12.24;92.70
40730;BME280;26418;50.070;8.436;2023-04-29T03:06:23;99664.34;;;12.15;93.13
40730;BME280;26418;50.070;8.436;2023-04-29T03:08:48;99675.50;;;12.22;93.15
40730;BME280;26418;50.070;8.436;2023-04-29T03:11:13;99663.06;;;12.12;93.09
40730;BME280;26418;50.070;8.436;2023-04-29T03:13:38;99675.66;;;12.17;93.31
40730;BME280;26418;50.070;8.436;2023-04-29T03:16:04;99670.03;;;12.13;93.17
40730;BME280;26418;50.070;8.436;2023-04-29T03:18:30;99682.19;;;12.16;93.26
40730;BME280;26418;50.070;8.436;2023-04-29T03:20:56;99663.06;;;12.12;92.81
40730;BME280;26418;50.070;8.436;2023-04-29T03:23:21;99680.28;;;12.16;92.34
40730;BME280;26418;50.070;8.436;2023-04-29T03:25:47;99687.44;;;12.12;92.74
40730;BME280;26418;50.070;8.436;2023-04-29T03:28:12;99678.50;;;12.11;92.35
40730;BME280;26418;50.070;8.436;2023-04-29T03:30:37;99676.13;;;12.10;92.17
40730;BME280;26418;50.070;8.436;2023-04-29T03:33:02;99659.38;;;11.99;91.98
40730;BME280;26418;50.070;8.436;2023-04-29T03:35:28;99678.97;;;12.05;91.74
40730;BME280;26418;50.070;8.436;2023-04-29T03:37:53;99681.88;;;12.08;90.09
40730;BME280;26418;50.070;8.436;2023-04-29T03:40:18;99677.84;;;12.06;89.83
40730;BME280;26418;50.070;8.436;2023-04-29T03:42:44;99681.53;;;12.10;89.05
40730;BME280;26418;50.070;8.436;2023-04-29T03:45:09;99685.53;;;12.13;88.61
40730;BME280;26418;50.070;8.436;2023-04-29T03:47:37;99687.91;;;12.14;87.52
40730;BME280;26418;50.070;8.436;2023-04-29T03:50:03;99678.03;;;12.09;86.99
40730;BME280;26418;50.070;8.436;2023-04-29T03:52:28;99687.91;;;12.14;86.85
40730;BME280;26418;50.070;8.436;2023-04-29T03:54:54;99679.78;;;12.05;86.28
40730;BME280;26418;50.070;8.436;2023-04-29T03:57:19;99680.88;;;12.04;86.39
40730;BME280;26418;50.070;8.436;2023-04-29T03:59:44;99693.81;;;12.07;86.49
40730;BME280;26418;50.070;8.436;2023-04-29T04:02:14;99701.94;;;12.07;86.87
40730;BME280;26418;50.070;8.436;2023-04-29T04:04:39;99710.53;;;12.09;86.21
40730;BME280;26418;50.070;8.436;2023-04-29T04:07:05;99701.94;;;12.07;86.21
40730;BME280;26418;50.070;8.436;2023-04-29T04:09:30;99699.38;;;12.02;86.08
40730;BME280;26418;50.070;8.436;2023-04-29T04:11:57;99715.63;;;12.02;85.89
40730;BME280;26418;50.070;8.436;2023-04-29T04:14:23;99718.19;;;11.99;86.60
40730;BME280;26418;50.070;8.436;2023-04-29T04:16:48;99722.28;;;11.96;86.86
40730;BME280;26418;50.070;8.436;2023-04-29T04:19:15;99717.66;;;11.96;86.74
40730;BME280;26418;50.070;8.436;2023-04-29T04:21:40;99713.22;;;11.92;86.38
40730;BME280;26418;50.070;8.436;2023-04-29T04:24:06;99718.91;;;11.90;86.53
40730;BME280;26418;50.070;8.436;2023-04-29T04:26:31;99715.91;;;11.92;85.72
40730;BME280;26418;50.070;8.436;2023-04-29T04:28:57;99715.59;;;11.93;85.43
40730;BME280;26418;50.070;8.436;2023-04-29T04:31:22;99711.44;;;11.87;85.48
40730;BME280;26418;50.070;8.436;2023-04-29T04:33:48;99729.91;;;11.85;85.96
40730;BME280;26418;50.070;8.436;2023-04-29T04:36:13;99719.19;;;11.80;85.86
40730;BME280;26418;50.070;8.436;2023-04-29T04:38:38;99735.81;;;11.87;85.22
40730;BME280;26418;50.070;8.436;2023-04-29T04:41:06;99722.75;;;11.89;84.71
40730;BME280;26418;50.070;8.436;2023-04-29T04:43:32;99730.69;;;11.86;83.91
40730;BME280;26418;50.070;8.436;2023-04-29T04:45:57;99729.75;;;11.82;83.82
40730;BME280;26418;50.070;8.436;2023-04-29T04:48:23;99710.38;;;11.66;83.84
40730;BME280;26418;50.070;8.436;2023-04-29T04:50:48;99729.69;;;11.73;84.15
40730;BME280;26418;50.070;8.436;2023-04-29T04:53:13;99738.47;;;11.70;83.12
40730;BME280;26418;50.070;8.436;2023-04-29T04:55:39;99738.41;;;11.61;83.38
40730;BME280;26418;50.070;8.436;2023-04-29T04:58:04;99740.50;;;11.64;82.54
40730;BME280;26418;50.070;8.436;2023-04-29T05:00:29;99732.22;;;11.60;82.16
40730;BME280;26418;50.070;8.436;2023-04-29T05:02:55;99736.34;;;11.58;81.84
40730;BME280;26418;50.070;8.436;2023-04-29T05:05:20;99745.09;;;11.63;81.57
40730;BME280;26418;50.070;8.436;2023-04-29T05:07:46;99728.50;;;11.56;81.41
40730;BME280;26418;50.070;8.436;2023-04-29T05:10:11;99757.69;;;11.59;81.73
40730;BME280;26418;50.070;8.436;2023-04-29T05:12:36;99753.19;;;11.55;80.92
40730;BME280;26418;50.070;8.436;2023-04-29T05:15:02;99750.19;;;11.56;80.54
40730;BME280;26418;50.070;8.436;2023-04-29T05:17:29;99777.44;;;11.60;78.99
40730;BME280;26418;50.070;8.436;2023-04-29T05:19:54;99770.63;;;11.62;77.96
40730;BME280;26418;50.070;8.436;2023-04-29T05:22:20;99773.13;;;11.59;78.09
40730;BME280;26418;50.070;8.436;2023-04-29T05:24:45;99772.84;;;11.60;77.99
40730;BME280;26418;50.070;8.436;2023-04-29T05:27:12;99781.13;;;11.64;78.01
40730;BME280;26418;50.070;8.436;2023-04-29T05:29:38;99785.13;;;11.67;78.13
40730;BME280;26418;50.070;8.436;2023-04-29T05:32:06;99774.72;;;11.60;77.26
40730;BME280;26418;50.070;8.436;2023-04-29T05:34:32;99769.31;;;11.60;76.80
40730;BME280;26418;50.070;8.436;2023-04-29T05:36:57;99793.13;;;11.72;77.21
40730;BME280;26418;50.070;8.436;2023-04-29T05:39:22;99804.44;;;11.74;76.92
40730;BME280;26418;50.070;8.436;2023-04-29T05:41:47;99800.44;;;11.71;77.25
40730;BME280;26418;50.070;8.436;2023-04-29T05:44:13;99790.50;;;11.58;76.67
40730;BME280;26418;50.070;8.436;2023-04-29T05:46:38;99811.13;;;11.68;76.60
40730;BME280;26418;50.070;8.436;2023-04-29T05:49:04;99816.84;;;11.66;76.09
40730;BME280;26418;50.070;8.436;2023-04-29T05:51:29;99821.44;;;11.66;76.71
40730;BME280;26418;50.070;8.436;2023-04-29T05:53:55;99807.69;;;11.53;77.01
40730;BME280;26418;50.070;8.436;2023-04-29T05:56:21;99818.38;;;11.58;76.33
40730;BME280;26418;50.070;8.436;2023-04-29T05:58:47;99822.09;;;11.62;76.59
40730;BME280;26418;50.070;8.436;2023-04-29T06:01:12;99843.13;;;11.66;76.70
40730;BME280;26418;50.070;8.436;2023-04-29T06:03:38;99850.47;;;11.65;76.65
40730;BME280;26418;50.070;8.436;2023-04-29T06:06:03;99855.38;;;11.63;76.64
40730;BME280;26418;50.070;8.436;2023-04-29T06:08:28;99858.59;;;11.65;76.20
40730;BME280;26418;50.070;8.436;2023-04-29T06:10:54;99869.78;;;11.72;76.26
40730;BME280;26418;50.070;8.436;2023-04-29T06:13:19;99858.28;;;11.67;76.38
40730;BME280;26418;50.070;8.436;2023-04-29T06:15:45;99876.66;;;11.78;76.60
40730;BME280;26418;50.070;8.436;2023-04-29T06:18:10;99881.84;;;11.89;76.73
40730;BME280;26418;50.070;8.436;2023-04-29T06:20:36;99890.47;;;11.91;76.68
40730;BME280;26418;50.070;8.436;2023-04-29T06:23:01;99896.13;;;12.03;76.40
40730;BME280;26418;50.070;8.436;2023-04-29T06:25:26;99887.75;;;12.14;76.14
40730;BME280;26418;50.070;8.436;2023-04-29T06:27:52;99889.88;;;12.25;76.16
40730;BME280;26418;50.070;8.436;2023-04-29T06:30:18;99895.19;;;12.39;76.30
40730;BME280;26418;50.070;8.436;2023-04-29T06:32:43;99902.41;;;12.53;74.84
40730;BME280;26418;50.070;8.436;2023-04-29T06:35:08;99904.50;;;12.56;73.59
40730;BME280;26418;50.070;8.436;2023-04-29T06:37:34;99915.69;;;12.63;73.80
40730;BME280;26418;50.070;8.436;2023-04-29T06:39:59;99914.91;;;12.63;70.99
40730;BME280;26418;50.070;8.436;2023-04-29T06:42:25;99912.50;;;12.61;70.64
40730;BME280;26418;50.070;8.436;2023-04-29T06:44:50;99920.69;;;12.70;70.54
40730;BME280;26418;50.070;8.436;2023-04-29T06:47:15;99928.66;;;12.75;70.84
40730;BME280;26418;50.070;8.436;2023-04-29T06:49:41;99918.91;;;12.65;70.04
40730;BME280;26418;50.070;8.436;2023-04-29T06:52:08;99929.28;;;12.72;70.54
40730;BME280;26418;50.070;8.436;2023-04-29T06:54:33;99929.28;;;12.72;70.96
40730;BME280;26418;50.070;8.436;2023-04-29T06:56:58;99931.56;;;12.79;70.75
40730;BME280;26418;50.070;8.436;2023-04-29T06:59:24;99937.97;;;12.83;69.52
40730;BME280;26418;50.070;8.436;2023-04-29T07:01:49;99943.22;;;12.88;69.74
40730;BME280;26418;50.070;8.436;2023-04-29T07:04:16;99938.59;;;12.88;69.73
40730;BME280;26418;50.070;8.436;2023-04-29T07:06:41;99940.38;;;12.93;69.81
40730;BME280;26418;50.070;8.436;2023-04-29T07:09:10;99941.63;;;12.87;69.30
40730;BME280;26418;50.070;8.436;2023-04-29T07:11:36;99945.63;;;12.89;69.47
40730;BME280;26418;50.070;8.436;2023-04-29T07:14:01;99944.03;;;12.88;69.27
40730;BME280;26418;50.070;8.436;2023-04-29T07:16:26;99956.47;;;12.89;69.09
40730;BME280;26418;50.070;8.436;2023-04-29T07:18:52;99938.25;;;12.81;69.17
40730;BME280;26418;50.070;8.436;2023-04-29T07:21:18;99937.31;;;12.77;70.60
40730;BME280;26418;50.070;8.436;2023-04-29T07:23:43;99952.31;;;12.83;70.71
40730;BME280;26418;50.070;8.436;2023-04-29T07:26:13;99957.31;;;12.90;70.34
40730;BME280;26418;50.070;8.436;2023-04-29T07:28:40;99961.28;;;12.93;70.25
40730;BME280;26418;50.070;8.436;2023-04-29T07:31:06;99961.78;;;12.95;69.99
40730;BME280;26418;50.070;8.436;2023-04-29T07:33:32;99967.22;;;13.03;70.00
40730;BME280;26418;50.070;8.436;2023-04-29T07:35:58;99964.50;;;13.03;69.51
40730;BME280;26418;50.070;8.436;2023-04-29T07:38:23;99960.03;;;12.99;69.46
40730;BME280;26418;50.070;8.436;2023-04-29T07:40:49;99960.34;;;12.97;69.40
40730;BME280;26418;50.070;8.436;2023-04-29T07:43:14;99975.69;;;13.02;70.28
40730;BME280;26418;50.070;8.436;2023-04-29T07:45:39;99970.09;;;12.98;70.81
40730;BME280;26418;50.070;8.436;2023-04-29T07:48:05;99979.84;;;13.08;69.71
40730;BME280;26418;50.070;8.436;2023-04-29T07:50:33;99987.22;;;13.08;69.91
40730;BME280;26418;50.070;8.436;2023-04-29T07:52:59;99988.00;;;13.08;70.16
40730;BME280;26418;50.070;8.436;2023-04-29T07:55:26;99991.03;;;13.07;71.10
40730;BME280;26418;50.070;8.436;2023-04-29T07:57:51;99995.81;;;13.10;71.22
40730;BME280;26418;50.070;8.436;2023-04-29T08:00:17;100000.31;;;13.14;70.79
40730;BME280;26418;50.070;8.436;2023-04-29T08:02:43;99997.13;;;13.12;70.73
40730;BME280;26418;50.070;8.436;2023-04-29T08:05:08;100003.03;;;13.14;70.58
40730;BME280;26418;50.070;8.436;2023-04-29T08:07:34;100012.81;;;13.24;70.96
40730;BME280;26418;50.070;8.436;2023-04-29T08:09:59;100015.88;;;13.31;69.90
40730;BME280;26418;50.070;8.436;2023-04-29T08:12:24;100020.19;;;13.32;69.89
40730;BME280;26418;50.070;8.436;2023-04-29T08:14:50;100020.19;;;13.32;69.48
40730;BME280;26418;50.070;8.436;2023-04-29T08:17:15;100025.91;;;13.31;69.44
40730;BME280;26418;50.070;8.436;2023-04-29T08:19:40;100018.69;;;13.17;69.22
40730;BME280;26418;50.070;8.436;2023-04-29T08:22:05;100031.94;;;13.19;69.67
40730;BME280;26418;50.070;8.436;2023-04-29T08:24:31;100025.69;;;13.10;70.11
40730;BME280;26418;50.070;8.436;2023-04-29T08:26:58;100035.16;;;13.12;69.64
40730;BME280;26418;50.070;8.436;2023-04-29T08:29:23;100029.50;;;13.00;70.40
40730;BME280;26418;50.070;8.436;2023-04-29T08:31:49;100036.03;;;12.99;71.05
40730;BME280;26418;50.070;8.436;2023-04-29T08:34:14;100045.28;;;12.98;71.55
40730;BME280;26418;50.070;8.436;2023-04-29T08:36:40;100053.59;;;13.01;71.35
40730;BME280;26418;50.070;8.436;2023-04-29T08:39:05;100041.34;;;13.04;71.19
40730;BME280;26418;50.070;8.436;2023-04-29T08:41:31;100041.28;;;12.95;70.71
40730;BME280;26418;50.070;8.436;2023-04-29T08:43:58;100040.34;;;13.00;71.36
40730;BME280;26418;50.070;8.436;2023-04-29T08:46:25;100052.22;;;13.13;71.65
40730;BME280;26418;50.070;8.436;2023-04-29T08:48:51;100047.47;;;13.27;70.85
40730;BME280;26418;50.070;8.436;2023-04-29T08:51:17;100048.28;;;13.28;69.70
40730;BME280;26418;50.070;8.436;2023-04-29T08:53:42;100043.81;;;13.32;69.62
40730;BME280;26418;50.070;8.436;2023-04-29T08:56:12;100057.09;;;13.33;69.70
40730;BME280;26418;50.070;8.436;2023-04-29T08:58:40;100052.44;;;13.25;70.37
40730;BME280;26418;50.070;8.436;2023-04-29T09:01:08;100055.44;;;13.15;71.32
40730;BME280;26418;50.070;8.436;2023-04-29T09:04:02;100064.34;;;13.07;71.97
40730;BME280;26418;50.070;8.436;2023-04-29T09:06:29;100054.56;;;12.97;72.49
40730;BME280;26418;50.070;8.436;2023-04-29T09:08:55;100067.84;;;13.07;72.28
40730;BME280;26418;50.070;8.436;2023-04-29T09:11:20;100058.91;;;13.07;72.74
40730;BME280;26418;50.070;8.436;2023-04-29T09:13:46;100065.19;;;13.25;72.21
40730;BME280;26418;50.070;8.436;2023-04-29T09:16:12;100051.16;;;13.31;71.14
40730;BME280;26418;50.070;8.436;2023-04-29T09:18:48;100067.84;;;13.47;70.42
40730;BME280;26418;50.070;8.436;2023-04-29T09:21:21;100064.66;;;13.45;69.02
40730;BME280;26418;50.070;8.436;2023-04-29T09:23:51;100072.16;;;13.40;69.60
40730;BME280;26418;50.070;8.436;2023-04-29T09:26:16;100070.72;;;13.42;69.65
40730;BME280;26418;50.070;8.436;2023-04-29T09:28:42;100085.91;;;13.43;69.12
40730;BME280;26418;50.070;8.436;2023-04-29T09:31:12;100079.78;;;13.37;68.86
40730;BME280;26418;50.070;8.436;2023-04-29T09:33:54;100069.06;;;13.32;69.71
40730;BME280;26418;50.070;8.436;2023-04-29T09:36:44;100078.53;;;13.44;69.38
40730;BME280;26418;50.070;8.436;2023-04-29T09:39:20;100085.13;;;13.51;69.65
40730;BME280;26418;50.070;8.436;2023-04-29T09:44:14;100082.56;;;13.46;70.10
40730;BME280;26418;50.070;8.436;2023-04-29T09:46:40;100076.31;;;13.46;69.55
40730;BME280;26418;50.070;8.436;2023-04-29T09:49:21;100085.91;;;13.52;69.01
40730;BME280;26418;50.070;8.436;2023-04-29T09:51:58;100093.44;;;13.46;69.09
40730;BME280;26418;50.070;8.436;2023-04-29T09:54:28;100094.84;;;13.44;69.78
40730;BME280;26418;50.070;8.436;2023-04-29T09:56:55;100090.34;;;13.39;69.39
40730;BME280;26418;50.070;8.436;2023-04-29T09:59:21;100091.28;;;13.34;68.51
40730;BME280;26418;50.070;8.436;2023-04-29T10:01:52;100094.97;;;13.30;68.45
40730;BME280;26418;50.070;8.436;2023-04-29T10:04:19;100104.38;;;13.32;68.69
40730;BME280;26418;50.070;8.436;2023-04-29T10:06:48;100102.59;;;13.28;68.95
40730;BME280;26418;50.070;8.436;2023-04-29T10:09:14;100098.47;;;13.30;69.25
40730;BME280;26418;50.070;8.436;2023-04-29T10:11:41;100102.78;;;13.31;68.91
40730;BME280;26418;50.070;8.436;2023-04-29T10:14:15;100099.63;;;13.38;69.09
40730;BME280;26418;50.070;8.436;2023-04-29T10:16:49;100095.66;;;13.44;68.29
40730;BME280;26418;50.070;8.436;2023-04-29T10:19:24;100097.41;;;13.40;68.41
40730;BME280;26418;50.070;8.436;2023-04-29T10:21:52;100110.06;;;13.54;68.91
40730;BME280;26418;50.070;8.436;2023-04-29T10:24:20;100104.81;;;13.66;68.52
40730;BME280;26418;50.070;8.436;2023-04-29T10:26:50;100094.59;;;13.72;68.22
40730;BME280;26418;50.070;8.436;2023-04-29T10:29:16;100099.91;;;13.86;67.80
40730;BME280;26418;50.070;8.436;2023-04-29T10:31:42;100111.75;;;13.98;66.97
40730;BME280;26418;50.070;8.436;2023-04-29T10:34:09;100102.16;;;14.01;66.22
40730;BME280;26418;50.070;8.436;2023-04-29T10:36:36;100095.78;;;13.97;65.65
40730;BME280;26418;50.070;8.436;2023-04-29T10:39:03;100105.69;;;14.02;65.98
40730;BME280;26418;50.070;8.436;2023-04-29T10:41:42;100101.84;;;13.94;64.95
40730;BME280;26418;50.070;8.436;2023-04-29T10:44:10;100093.31;;;13.78;64.58
40730;BME280;26418;50.070;8.436;2023-04-29T10:46:35;100093.81;;;13.71;64.91
40730;BME280;26418;50.070;8.436;2023-04-29T10:49:03;100104.66;;;13.62;65.39
40730;BME280;26418;50.070;8.436;2023-04-29T10:51:30;100113.47;;;13.68;65.42
40730;BME280;26418;50.070;8.436;2023-04-29T10:56:37;100109.59;;;13.60;65.40
40730;BME280;26418;50.070;8.436;2023-04-29T10:59:03;100104.97;;;13.70;66.01
40730;BME280;26418;50.070;8.436;2023-04-29T11:01:46;100101.22;;;13.97;65.38
40730;BME280;26418;50.070;8.436;2023-04-29T11:04:12;100100.09;;;14.24;64.66
40730;BME280;26418;50.070;8.436;2023-04-29T11:06:41;100098.78;;;14.48;63.49
40730;BME280;26418;50.070;8.436;2023-04-29T11:09:39;100098.59;;;14.80;62.61
40730;BME280;26418;50.070;8.436;2023-04-29T11:12:04;100087.81;;;15.01;61.76
40730;BME280;26418;50.070;8.436;2023-04-29T11:14:39;100089.78;;;15.21;60.47
40730;BME280;26418;50.070;8.436;2023-04-29T11:17:15;100082.09;;;15.53;59.46
40730;BME280;26418;50.070;8.436;2023-04-29T11:19:45;100072.81;;;15.76;57.83
40730;BME280;26418;50.070;8.436;2023-04-29T11:22:29;100076.31;;;16.06;57.32
40730;BME280;26418;50.070;8.436;2023-04-29T11:25:06;100079.88;;;16.40;56.07
40730;BME280;26418;50.070;8.436;2023-04-29T11:27:33;100064.09;;;16.58;54.50
40730;BME280;26418;50.070;8.436;2023-04-29T11:30:01;100080.53;;;16.71;53.20
40730;BME280;26418;50.070;8.436;2023-04-29T11:32:30;100079.53;;;16.75;53.89
40730;BME280;26418;50.070;8.436;2023-04-29T11:35:13;100080.69;;;16.87;53.49
40730;BME280;26418;50.070;8.436;2023-04-29T11:37:41;100081.47;;;16.87;52.66
40730;BME280;26418;50.070;8.436;2023-04-29T11:40:07;100080.66;;;16.74;53.91
40730;BME280;26418;50.070;8.436;2023-04-29T11:42:34;100077.09;;;16.61;52.84
40730;BME280;26418;50.070;8.436;2023-04-29T11:45:00;100086.16;;;16.53;52.79
40730;BME280;26418;50.070;8.436;2023-04-29T11:47:27;100068.44;;;16.26;53.54
40730;BME280;26418;50.070;8.436;2023-04-29T11:50:01;100085.47;;;16.23;53.83
40730;BME280;26418;50.070;8.436;2023-04-29T11:52:27;100089.34;;;16.22;54.46
40730;BME280;26418;50.070;8.436;2023-04-29T11:54:53;100079.44;;;16.17;55.77
40730;BME280;26418;50.070;8.436;2023-04-29T11:57:18;100074.91;;;16.21;56.35
40730;BME280;26418;50.070;8.436;2023-04-29T11:59:45;100085.19;;;16.37;56.45
40730;BME280;26418;50.070;8.436;2023-04-29T12:02:11;100087.59;;;16.38;55.93
40730;BME280;26418;50.070;8.436;2023-04-29T12:04:46;100083.94;;;16.34;55.98
40730;BME280;26418;50.070;8.436;2023-04-29T12:07:15;100083.59;;;16.35;55.29
40730;BME280;26418;50.070;8.436;2023-04-29T12:09:42;100081.66;;;16.57;55.69
40730;BME280;26418;50.070;8.436;2023-04-29T12:12:08;100082.03;;;16.80;54.36
40730;BME280;26418;50.070;8.436;2023-04-29T12:14:33;100075.13;;;16.95;53.52
40730;BME280;26418;50.070;8.436;2023-04-29T12:16:59;100079.34;;;17.05;53.06
40730;BME280;26418;50.070;8.436;2023-04-29T12:19:25;100073.78;;;17.02;52.25
40730;BME280;26418;50.070;8.436;2023-04-29T12:21:50;100069.06;;;16.90;53.12
40730;BME280;26418;50.070;8.436;2023-04-29T12:24:16;100078.75;;;16.87;53.66
40730;BME280;26418;50.070;8.436;2023-04-29T12:26:44;100078.03;;;16.78;54.44
40730;BME280;26418;50.070;8.436;2023-04-29T12:29:09;100071.97;;;16.60;54.50
40730;BME280;26418;50.070;8.436;2023-04-29T12:31:35;100084.63;;;16.64;55.04
40730;BME280;26418;50.070;8.436;2023-04-29T12:34:02;100078.38;;;16.76;54.35
40730;BME280;26418;50.070;8.436;2023-04-29T12:36:27;100077.16;;;16.86;54.21
40730;BME280;26418;50.070;8.436;2023-04-29T12:38:53;100083.91;;;17.13;54.43
40730;BME280;26418;50.070;8.436;2023-04-29T12:41:35;100085.41;;;17.48;53.21
40730;BME280;26418;50.070;8.436;2023-04-29T12:44:00;100093.31;;;17.90;52.58
40730;BME280;26418;50.070;8.436;2023-04-29T12:46:26;100079.03;;;18.10;51.45
40730;BME280;26418;50.070;8.436;2023-04-29T12:48:52;100104.47;;;18.38;50.99
40730;BME280;26418;50.070;8.436;2023-04-29T12:51:17;100086.88;;;18.23;50.09
40730;BME280;26418;50.070;8.436;2023-04-29T12:53:42;100092.78;;;18.26;50.67
40730;BME280;26418;50.070;8.436;2023-04-29T12:56:10;100086.00;;;18.07;50.26
40730;BME280;26418;50.070;8.436;2023-04-29T12:58:37;100086.00;;;17.95;51.05
40730;BME280;26418;50.070;8.436;2023-04-29T13:01:02;100091.03;;;18.05;51.39
40730;BME280;26418;50.070;8.436;2023-04-29T13:03:28;100096.97;;;18.35;50.97